Livingston, Alabama
Current Conditions -  °F | °C
As of 2:15 PM on Wednesday 26 Nov 2014 (Local Time) from KDYA Reporting Station
Clear Clear  
Wind Chill: 63°   Ceiling: Unl
Heat Index: 63°   Visibility: 10mi
Dew Point: 26°   Wind: 8mph
Humidity: 25%   Direction: 220°SW
Pressure: 30.08"   Gusts: NA
Location:  32.58°N, 88.19°W
Report Text: KDYA 262015Z AUTO 22007KT 10SM CLR 17/M03 A3008 RMK AO2 T01701033
Loading
Personal Weather Stations






























Interactive Weather Map New forecast layout! Learn more

10-Day Weather Forecast

Advertisements
Track Severe Weather on mobile